Weather History for Cody, WY

Change the Weather History Date:

Tuesday, November 6, 2012

  Actual Average Record
Temperature  
Mean Temperature 53 °F -  
Max Temperature 64 °F 49 °F 74 °F (1934)
Min Temperature 42 °F 26 °F 6 °F (1936)
Degree Days  
Heating Degree Days 12    
Growing Degree Days 3 (Base 50)    
Moisture  
Dew Point 30 °F    
Average Humidity 38    
Maximum Humidity 61    
Minimum Humidity 26    
Precipitation  
Precipitation 0.00 in - - ()
Sea Level Pressure  
Sea Level Pressure 30.16 in    
Wind  
Wind Speed 10 mph (West)    
Max Wind Speed 18 mph    
Max Gust Speed 26 mph    
Visibility 10 miles    
Events      
Averages and records for this station are not official NWS values.
T = Trace of Precipitation, MM = Missing Value Source: NWS Daily Summary

Daily Weather History Graph

Daily Weather History Graph

Search for Another Location

Airport:

Trip Planner

Search our weather history database for the weather conditions in past years. The results will help you decide how hot, cold, wet, or windy it might be!

Date:

Astronomy

Nov. 06, 2012 Rise Set
Actual Time 7:01 AM MST 4:57 PM MST
Civil Twilight 6:30 AM MST 5:28 PM MST
Nautical Twilight 5:55 AM MST 6:03 PM MST
Astronomical Twilight 5:21 AM MST 6:37 PM MST
Moon 11:43 PM MST (11/6) 12:52 PM MST (11/6)
Length of Visible Light 10h 58m
Length of Day
9h 56m
Waning Gibbous, 52% of the Moon is Illuminated
Nov 6
Waning Gibbous
Nov 6
Last Quarter
Nov 13
New
Nov 20
First Quarter
Nov 28
Full

Hourly Weather History & Observations

Time (MST) Temp. Windchill Dew Point Humidity Pressure Visibility Wind Dir Wind Speed Gust Speed Precip Events Conditions
12:15 AM 57.2 °F - 28.4 °F 33% 30.18 in 10.0 mi West 16.1 mph 24.2 mph N/A   Clear
12:35 AM 55.4 °F - 30.2 °F 38% 30.18 in 10.0 mi West 12.7 mph 20.7 mph N/A   Clear
12:55 AM 55.4 °F - 30.2 °F 38% 30.19 in 10.0 mi NW 10.4 mph - N/A   Clear
1:15 AM 53.6 °F - 30.2 °F 41% 30.20 in 10.0 mi West 11.5 mph - N/A   Clear
1:35 AM 53.6 °F - 30.2 °F 41% 30.20 in 10.0 mi West 8.1 mph - N/A   Clear
1:55 AM 51.8 °F - 30.2 °F 44% 30.20 in 10.0 mi WNW 11.5 mph 17.3 mph N/A   Clear
2:15 AM 51.8 °F - 30.2 °F 44% 30.21 in 10.0 mi North 3.5 mph - N/A   Clear
2:35 AM 50.0 °F - 30.2 °F 47% 30.21 in 10.0 mi North 6.9 mph - N/A   Clear
2:55 AM 53.6 °F - 30.2 °F 41% 30.21 in 10.0 mi North 9.2 mph 18.4 mph N/A   Clear
3:15 AM 51.8 °F - 30.2 °F 44% 30.21 in 10.0 mi Calm Calm - N/A   Clear
3:35 AM 48.2 °F - 30.2 °F 50% 30.21 in 10.0 mi NNW 4.6 mph - N/A   Clear
3:55 AM 48.2 °F - 30.2 °F 50% 30.21 in 10.0 mi NNW 4.6 mph - N/A   Clear
4:15 AM 48.2 °F - 30.2 °F 50% 30.21 in 10.0 mi NE 6.9 mph - N/A   Clear
4:35 AM 48.2 °F - 30.2 °F 50% 30.21 in 10.0 mi NNE 8.1 mph - N/A   Clear
4:55 AM 44.6 °F 40.7 °F 30.2 °F 57% 30.22 in 10.0 mi NNW 6.9 mph - N/A   Clear
5:15 AM 44.6 °F - 30.2 °F 57% 30.22 in 10.0 mi Calm Calm - N/A   Clear
5:35 AM 44.6 °F 42.2 °F 30.2 °F 57% 30.22 in 10.0 mi NNW 4.6 mph - N/A   Clear
5:55 AM 42.8 °F - 30.2 °F 61% 30.22 in 10.0 mi Calm Calm - N/A   Clear
6:35 AM 44.6 °F 40.7 °F 30.2 °F 57% 30.22 in 10.0 mi NNE 6.9 mph - N/A   Clear
6:55 AM 46.4 °F - 30.2 °F 53% 30.22 in 10.0 mi Calm Calm - N/A   Clear
7:15 AM 46.4 °F - 30.2 °F 53% 30.22 in 10.0 mi Calm Calm - N/A   Clear
7:35 AM 50.0 °F - 30.2 °F 47% 30.23 in 10.0 mi NW 6.9 mph - N/A   Clear
7:55 AM 50.0 °F - 30.2 °F 47% 30.23 in 10.0 mi NW 5.8 mph 18.4 mph N/A   Clear
8:15 AM 51.8 °F - 30.2 °F 44% 30.23 in 10.0 mi NW 6.9 mph - N/A   Clear
8:55 AM 53.6 °F - 32.0 °F 44% 30.22 in 10.0 mi NNW 9.2 mph - N/A   Clear
9:15 AM 55.4 °F - 32.0 °F 41% 30.21 in 10.0 mi West 12.7 mph 20.7 mph N/A   Clear
9:35 AM 57.2 °F - 32.0 °F 38% 30.21 in 10.0 mi West 8.1 mph 20.7 mph N/A   Clear
9:55 AM 59.0 °F - 32.0 °F 36% 30.21 in 10.0 mi West 10.4 mph 19.6 mph N/A   Clear
10:15 AM 59.0 °F - 30.2 °F 34% 30.21 in 10.0 mi West 13.8 mph 19.6 mph N/A   Clear
10:35 AM 59.0 °F - 32.0 °F 36% 30.20 in 10.0 mi WSW 16.1 mph 24.2 mph N/A   Clear
10:55 AM 59.0 °F - 32.0 °F 36% 30.21 in 10.0 mi West 17.3 mph 25.3 mph N/A   Clear
11:35 AM 62.6 °F - 30.2 °F 30% 30.19 in 10.0 mi West 13.8 mph 19.6 mph N/A   Clear
11:55 AM 62.6 °F - 30.2 °F 30% 30.18 in 10.0 mi West 15.0 mph 21.9 mph N/A   Clear
12:15 PM 62.6 °F - 30.2 °F 30% 30.18 in 10.0 mi West 18.4 mph 24.2 mph N/A   Clear
12:35 PM 64.4 °F - 30.2 °F 28% 30.17 in 10.0 mi West 13.8 mph 21.9 mph N/A   Clear
12:55 PM 62.6 °F - 30.2 °F 30% 30.16 in 10.0 mi WSW 13.8 mph 21.9 mph N/A   Clear
1:15 PM 64.4 °F - 28.4 °F 26% 30.16 in 10.0 mi West 11.5 mph 24.2 mph N/A   Clear
1:35 PM 64.4 °F - 28.4 °F 26% 30.15 in 10.0 mi West 11.5 mph 21.9 mph N/A   Clear
1:55 PM 64.4 °F - 28.4 °F 26% 30.15 in 10.0 mi West 12.7 mph 24.2 mph N/A   Clear
2:15 PM 64.4 °F - 28.4 °F 26% 30.15 in - West 12.7 mph 19.6 mph N/A   Unknown
2:35 PM 64.4 °F - 28.4 °F 26% 30.14 in 10.0 mi WSW 16.1 mph 24.2 mph N/A   Clear
3:15 PM 64.4 °F - 28.4 °F 26% 30.14 in 10.0 mi WSW 13.8 mph 18.4 mph N/A   Clear
3:35 PM 64.4 °F - 28.4 °F 26% 30.14 in 10.0 mi WSW 10.4 mph 20.7 mph N/A   Clear
3:55 PM 64.4 °F - 28.4 °F 26% 30.14 in 10.0 mi WSW 12.7 mph 21.9 mph N/A   Clear
4:15 PM 64.4 °F - 28.4 °F 26% 30.14 in 10.0 mi SW 8.1 mph - N/A   Clear
4:35 PM 62.6 °F - 28.4 °F 27% 30.14 in 10.0 mi WNW 10.4 mph 18.4 mph N/A   Clear
4:55 PM 62.6 °F - 28.4 °F 27% 30.13 in 10.0 mi WSW 12.7 mph 17.3 mph N/A   Clear
5:15 PM 62.6 °F - 28.4 °F 27% 30.13 in 10.0 mi WSW 11.5 mph 18.4 mph N/A   Clear
5:35 PM 60.8 °F - 28.4 °F 29% 30.13 in 10.0 mi SW 12.7 mph 17.3 mph N/A   Clear
5:55 PM 60.8 °F - 28.4 °F 29% 30.13 in 10.0 mi WSW 12.7 mph 20.7 mph N/A   Clear
6:15 PM 59.0 °F - 28.4 °F 31% 30.12 in 10.0 mi SSW 13.8 mph - N/A   Clear
6:35 PM 59.0 °F - 30.2 °F 34% 30.12 in 10.0 mi SW 18.4 mph 21.9 mph N/A   Clear
6:55 PM 59.0 °F - 30.2 °F 34% 30.11 in 10.0 mi SSW 17.3 mph 26.5 mph N/A   Clear
7:15 PM 59.0 °F - 30.2 °F 34% 30.11 in 10.0 mi SSW 16.1 mph 24.2 mph N/A   Clear
7:55 PM 57.2 °F - 30.2 °F 36% 30.11 in 10.0 mi SW 10.4 mph 17.3 mph N/A   Clear
8:15 PM 59.0 °F - 30.2 °F 34% 30.10 in 10.0 mi West 13.8 mph 20.7 mph N/A   Clear
8:35 PM 59.0 °F - 30.2 °F 34% 30.10 in 10.0 mi SW 10.4 mph - N/A   Clear
8:55 PM 57.2 °F - 30.2 °F 36% 30.09 in 10.0 mi West 9.2 mph - N/A   Clear
9:15 PM 57.2 °F - 28.4 °F 33% 30.09 in 10.0 mi SW 8.1 mph - N/A   Clear
9:35 PM 55.4 °F - 30.2 °F 38% 30.08 in 10.0 mi SW 9.2 mph - N/A   Clear
9:55 PM 55.4 °F - 30.2 °F 38% 30.08 in 10.0 mi SW 12.7 mph 17.3 mph N/A   Clear
10:15 PM 55.4 °F - 30.2 °F 38% 30.07 in 10.0 mi Calm Calm - N/A   Clear
10:35 PM 55.4 °F - 30.2 °F 38% 30.07 in 10.0 mi SSW 5.8 mph - N/A   Clear
10:55 PM 53.6 °F - 30.2 °F 41% 30.06 in 10.0 mi SE 8.1 mph - N/A   Clear
11:15 PM 51.8 °F - 28.4 °F 41% 30.06 in 10.0 mi ESE 3.5 mph - N/A   Clear
11:35 PM 57.2 °F - 28.4 °F 33% 30.06 in 10.0 mi West 8.1 mph - N/A   Clear
11:55 PM 51.8 °F - 28.4 °F 41% 30.05 in 10.0 mi Calm Calm - N/A   Clear